createdAt,value
2022-11-09T00:02:05.696Z,74.28
2022-11-09T00:07:10.787Z,28.13
2022-11-09T00:12:18.516Z,24.50
2022-11-09T00:17:23.508Z,22.20
2022-11-09T00:22:28.841Z,23.63
2022-11-09T00:27:36.510Z,24.70
2022-11-09T00:32:41.544Z,22.75
2022-11-09T00:37:46.604Z,23.65
2022-11-09T00:42:54.241Z,23.48
2022-11-09T00:47:59.437Z,23.80
2022-11-09T00:53:04.435Z,26.52
2022-11-09T00:58:12.165Z,27.00
2022-11-09T01:03:17.711Z,24.45
2022-11-09T01:08:22.970Z,23.63
2022-11-09T01:13:30.573Z,25.63
2022-11-09T01:18:35.615Z,21.55
2022-11-09T01:23:41.102Z,19.55
2022-11-09T01:28:48.777Z,17.95
2022-11-09T01:33:53.949Z,23.33
2022-11-09T01:38:59.354Z,20.38
2022-11-09T01:44:14.910Z,18.02
2022-11-09T01:49:26.237Z,17.58
2022-11-09T01:54:32.970Z,21.30
2022-11-09T01:59:43.799Z,26.67
2022-11-09T02:04:52.967Z,21.02
2022-11-09T02:10:01.935Z,21.65
2022-11-09T02:15:11.930Z,22.38
2022-11-09T02:20:20.744Z,13.07
2022-11-09T02:25:25.853Z,14.55
2022-11-09T02:30:30.907Z,15.02
2022-11-09T02:35:38.500Z,15.70
2022-11-09T02:40:46.379Z,9.82
2022-11-09T02:45:51.431Z,15.25
2022-11-09T02:50:59.030Z,16.00
2022-11-09T02:56:04.051Z,15.25
2022-11-09T03:01:09.408Z,14.95
2022-11-09T03:06:17.220Z,13.70
2022-11-09T03:11:22.142Z,12.80
2022-11-09T03:16:27.366Z,14.73
2022-11-09T03:21:34.914Z,11.32
2022-11-09T03:26:39.869Z,12.43
2022-11-09T03:31:44.916Z,13.57
2022-11-09T03:36:52.530Z,15.95
2022-11-09T03:41:57.474Z,16.33
2022-11-09T03:47:02.398Z,15.40
2022-11-09T03:52:10.040Z,13.23
2022-11-09T03:57:14.996Z,18.88
2022-11-09T04:02:20.006Z,19.42
2022-11-09T04:07:27.593Z,20.45
2022-11-09T04:12:32.526Z,22.42
2022-11-09T04:17:37.570Z,15.50
2022-11-09T04:22:45.132Z,17.15
2022-11-09T04:27:50.133Z,20.92
2022-11-09T04:32:55.081Z,16.48
2022-11-09T04:38:05.356Z,16.75
2022-11-09T04:43:11.346Z,17.70
2022-11-09T04:48:16.338Z,17.27
2022-11-09T04:53:24.245Z,17.83
2022-11-09T04:58:29.703Z,17.05
2022-11-09T05:03:34.796Z,23.98
2022-11-09T05:08:42.435Z,19.02
2022-11-09T05:13:47.526Z,19.80
2022-11-09T05:18:52.723Z,24.02
2022-11-09T05:24:03.181Z,15.73
2022-11-09T05:29:09.945Z,19.10
2022-11-09T05:34:16.049Z,14.27
2022-11-09T05:39:23.596Z,16.58
2022-11-09T05:44:28.847Z,20.98
2022-11-09T05:49:33.782Z,15.90
2022-11-09T05:54:41.412Z,17.40
2022-11-09T05:59:46.346Z,18.88
2022-11-09T06:04:51.312Z,15.85
2022-11-09T06:09:58.981Z,18.17
2022-11-09T06:15:04.407Z,19.70
2022-11-09T06:20:10.583Z,21.67
2022-11-09T06:25:18.280Z,21.00
2022-11-09T06:30:23.449Z,23.55
2022-11-09T06:35:30.963Z,25.30
2022-11-09T06:40:39.410Z,24.88
2022-11-09T06:45:44.490Z,34.95
2022-11-09T06:50:49.881Z,43.88
2022-11-09T06:56:00.916Z,47.75
2022-11-09T07:01:10.174Z,39.25
2022-11-09T07:06:16.001Z,37.30
2022-11-09T07:11:24.162Z,37.05
2022-11-09T07:16:29.533Z,42.28
2022-11-09T07:21:44.013Z,37.10
2022-11-09T07:26:51.893Z,42.83
2022-11-09T07:31:56.923Z,39.47
2022-11-09T07:37:01.910Z,45.92
2022-11-09T07:42:09.610Z,45.40
2022-11-09T08:46:11.969Z,30.20
2022-11-09T08:51:17.406Z,28.10
2022-11-09T08:56:22.633Z,28.17
2022-11-09T09:01:42.221Z,29.67
2022-11-09T09:12:46.152Z,26.55
2022-11-09T09:17:53.836Z,27.35
2022-11-09T09:23:01.253Z,23.13
2022-11-09T09:28:07.503Z,28.00
2022-11-09T09:33:15.066Z,23.58
2022-11-09T09:38:20.494Z,43.10
2022-11-09T09:43:43.255Z,47.35
2022-11-09T09:49:34.812Z,23.60
2022-11-09T10:00:24.709Z,42.95
2022-11-09T10:05:59.284Z,24.63
2022-11-09T10:11:16.933Z,28.00
2022-11-09T10:28:15.467Z,21.27
2022-11-09T10:33:22.540Z,21.80
2022-11-09T10:38:33.582Z,26.70
2022-11-09T10:43:41.263Z,18.85
2022-11-09T10:48:46.356Z,27.63
2022-11-09T10:53:51.748Z,23.67
2022-11-09T10:58:59.585Z,24.23
2022-11-09T11:04:23.064Z,22.30
2022-11-09T11:09:33.495Z,16.95
2022-11-09T11:14:46.205Z,19.50
2022-11-09T11:19:51.423Z,21.30
2022-11-09T11:24:59.069Z,18.98
2022-11-09T11:30:13.432Z,17.50
2022-11-09T11:35:20.594Z,19.00
2022-11-09T11:40:30.574Z,20.15
2022-11-09T11:45:41.889Z,30.13
2022-11-09T11:50:49.075Z,21.85
2022-11-09T11:56:17.930Z,19.48
2022-11-09T12:01:37.926Z,20.30
2022-11-09T12:06:59.854Z,18.33
2022-11-09T12:12:22.597Z,24.02
2022-11-09T12:17:38.207Z,18.23
2022-11-09T12:22:48.125Z,19.60
2022-11-09T12:28:04.256Z,18.60
2022-11-09T12:33:17.078Z,22.45
2022-11-09T12:38:26.557Z,17.05
2022-11-09T12:43:35.409Z,20.80
2022-11-09T12:54:18.122Z,15.73
2022-11-09T12:59:25.263Z,21.40
2022-11-09T13:04:31.082Z,22.25
2022-11-09T13:09:44.870Z,19.23
2022-11-09T13:14:50.374Z,22.17
2022-11-09T13:19:57.263Z,21.13
2022-11-09T13:25:07.262Z,15.85
2022-11-09T13:30:47.670Z,19.25
2022-11-09T13:36:18.413Z,23.83
2022-11-09T13:41:47.244Z,22.58
2022-11-09T13:46:54.542Z,21.33
2022-11-09T13:51:59.994Z,26.70
2022-11-09T13:57:09.814Z,22.73
2022-11-09T14:02:25.107Z,26.13
2022-11-09T14:07:33.114Z,25.02
2022-11-09T14:12:45.106Z,25.98
2022-11-09T14:17:58.154Z,26.67
2022-11-09T14:23:46.442Z,32.70
2022-11-09T14:29:37.332Z,51.88
2022-11-09T14:35:24.387Z,87.57
2022-11-09T14:40:30.827Z,47.75
2022-11-09T14:45:38.733Z,36.78
2022-11-09T14:50:43.980Z,35.70
2022-11-09T14:55:49.711Z,36.65
2022-11-09T15:01:15.991Z,38.10
2022-11-09T15:06:21.636Z,33.53
2022-11-09T15:17:08.201Z,38.60
2022-11-09T15:22:42.858Z,48.10
2022-11-09T15:28:07.283Z,38.55
2022-11-09T15:33:27.335Z,41.35
2022-11-09T15:38:39.637Z,54.63
2022-11-09T15:43:44.927Z,65.45
2022-11-09T15:48:53.307Z,56.72
2022-11-09T15:53:58.497Z,59.95
2022-11-09T15:59:04.006Z,57.03
2022-11-09T16:04:13.357Z,57.17
2022-11-09T16:15:24.622Z,99.72
2022-11-09T16:20:34.526Z,94.30
2022-11-09T16:25:39.542Z,68.28
2022-11-09T16:30:46.873Z,61.63
2022-11-09T16:35:56.037Z,61.55
2022-11-09T16:41:03.525Z,58.13
2022-11-09T16:51:40.114Z,56.88
2022-11-09T16:56:58.346Z,82.20
2022-11-09T17:02:03.827Z,80.93
2022-11-09T17:07:12.325Z,74.10
2022-11-09T17:12:17.489Z,81.32
2022-11-09T17:17:23.062Z,81.80
2022-11-09T17:22:30.977Z,73.20
2022-11-09T17:27:35.969Z,77.13
2022-11-09T17:33:06.985Z,56.03
2022-11-09T17:38:14.936Z,52.25
2022-11-09T17:48:53.227Z,72.63
2022-11-09T17:54:02.219Z,51.92
2022-11-09T17:59:07.970Z,49.33
2022-11-09T18:04:14.433Z,53.00
2022-11-09T18:09:41.866Z,66.10
2022-11-09T18:14:47.639Z,53.75
2022-11-09T18:19:52.802Z,224.07
2022-11-09T18:25:00.748Z,405.45
2022-11-09T18:30:31.842Z,410.80
2022-11-09T18:35:37.026Z,261.58
2022-11-09T18:40:45.063Z,134.32
2022-11-09T18:45:57.829Z,72.57
2022-11-09T18:51:03.777Z,70.35
2022-11-09T18:56:18.365Z,82.82
2022-11-09T19:01:27.686Z,72.85
2022-11-09T19:06:32.735Z,98.60
2022-11-09T19:11:40.542Z,72.40
2022-11-09T19:16:45.521Z,63.33
2022-11-09T19:21:52.022Z,57.53
2022-11-09T19:26:59.777Z,54.80
2022-11-09T19:32:04.762Z,53.10
2022-11-09T19:37:09.758Z,59.63
2022-11-09T19:42:17.481Z,83.72
2022-11-09T19:47:22.451Z,86.93
2022-11-09T19:52:27.427Z,120.53
2022-11-09T19:57:35.088Z,80.90
2022-11-09T20:02:40.067Z,74.38
2022-11-09T20:07:45.022Z,77.30
2022-11-09T20:12:54.834Z,73.50
2022-11-09T20:17:59.919Z,66.07
2022-11-09T20:23:04.889Z,60.17
2022-11-09T20:28:12.489Z,66.70
2022-11-09T20:33:18.199Z,68.53
2022-11-09T20:38:23.667Z,69.55
2022-11-09T20:43:32.410Z,75.05
2022-11-09T20:48:53.464Z,67.45
2022-11-09T20:54:03.930Z,61.70
2022-11-09T20:59:15.005Z,58.38
2022-11-09T21:04:20.044Z,62.45
2022-11-09T21:09:25.197Z,66.07
2022-11-09T21:14:32.810Z,75.38
2022-11-09T21:19:37.971Z,78.32
2022-11-09T21:24:55.277Z,84.85
2022-11-09T21:30:05.787Z,80.80
2022-11-09T21:35:11.917Z,71.72
2022-11-09T21:40:19.476Z,56.45
2022-11-09T21:45:27.629Z,47.20
2022-11-09T21:50:32.777Z,43.17
2022-11-09T21:55:37.779Z,39.38
2022-11-09T22:00:45.357Z,36.40
2022-11-09T22:05:52.249Z,34.42
2022-11-09T22:11:06.857Z,36.80
2022-11-09T22:16:15.400Z,28.88
2022-11-09T22:21:20.432Z,33.80
2022-11-09T22:26:25.525Z,29.10
2022-11-09T22:31:33.249Z,31.05
2022-11-09T22:36:38.298Z,28.55
2022-11-09T22:41:43.923Z,30.42
2022-11-09T22:46:51.781Z,33.40
2022-11-09T22:51:56.793Z,31.67
2022-11-09T22:57:02.089Z,31.15
2022-11-09T23:02:09.734Z,29.55
2022-11-09T23:07:15.259Z,29.30
2022-11-09T23:12:20.361Z,30.05
2022-11-09T23:17:40.313Z,30.73
2022-11-09T23:22:45.484Z,27.47
2022-11-09T23:27:53.461Z,29.42
2022-11-09T23:33:03.336Z,30.65
2022-11-09T23:38:09.286Z,27.23
2022-11-09T23:43:16.413Z,39.67
2022-11-09T23:48:24.019Z,27.25
2022-11-09T23:53:29.702Z,29.85
2022-11-09T23:58:35.036Z,28.50
